createdAt,value
2023-05-21T00:00:55.453Z,101684.97
2023-05-21T00:01:56.915Z,101677.66
2023-05-21T00:02:59.100Z,101678.44
2023-05-21T00:04:00.954Z,101677.59
2023-05-21T00:05:02.707Z,101679.47
2023-05-21T00:06:04.451Z,101683.09
2023-05-21T00:07:06.621Z,101678.50
2023-05-21T00:08:08.261Z,101677.66
2023-05-21T00:09:10.614Z,101677.72
2023-05-21T00:10:12.651Z,101679.63
2023-05-21T00:11:14.210Z,101670.44
2023-05-21T00:12:15.749Z,101676.69
2023-05-21T00:13:17.237Z,101680.41
2023-05-21T00:14:18.710Z,101672.34
2023-05-21T00:15:20.191Z,101678.78
2023-05-21T00:16:22.372Z,101679.63
2023-05-21T00:17:23.961Z,101675.16
2023-05-21T00:18:25.509Z,101678.09
2023-05-21T00:19:27.249Z,101681.69
2023-05-21T00:20:29.286Z,101675.34
2023-05-21T00:21:31.648Z,101676.34
2023-05-21T00:22:36.306Z,101677.25
2023-05-21T00:23:39.675Z,101677.25
2023-05-21T00:24:41.232Z,101670.94
2023-05-21T00:25:42.657Z,101670.09
2023-05-21T00:26:44.156Z,101681.88
2023-05-21T00:27:45.695Z,101668.13
2023-05-21T00:28:47.581Z,101659.84
2023-05-21T00:29:48.954Z,101672.53
2023-05-21T00:30:50.558Z,101665.22
2023-05-21T00:31:52.296Z,101660.84
2023-05-21T00:32:53.804Z,101664.47
2023-05-21T00:33:55.450Z,101659.97
2023-05-21T00:34:58.243Z,101665.47
2023-05-21T00:35:59.800Z,101654.63
2023-05-21T00:37:02.991Z,101661.00
2023-05-21T00:38:04.447Z,101663.69
2023-05-21T00:39:06.506Z,101661.00
2023-05-21T00:40:09.202Z,101661.00
2023-05-21T00:41:11.025Z,101662.09
2023-05-21T00:42:13.047Z,101664.09
2023-05-21T00:43:14.662Z,101661.53
2023-05-21T00:44:18.190Z,101660.63
2023-05-21T00:45:19.656Z,101654.28
2023-05-21T00:46:21.916Z,101662.63
2023-05-21T00:47:23.927Z,101668.22
2023-05-21T00:48:26.070Z,101663.72
2023-05-21T00:49:28.442Z,101660.06
2023-05-21T00:50:30.808Z,101655.63
2023-05-21T00:51:32.757Z,101651.75
2023-05-21T00:52:41.524Z,101657.09
2023-05-21T00:53:44.296Z,101656.13
2023-05-21T00:54:50.008Z,101658.97
2023-05-21T00:55:51.541Z,101655.19
2023-05-21T00:56:53.083Z,101653.50
2023-05-21T00:57:54.629Z,101652.72
2023-05-21T00:58:57.363Z,101654.47
2023-05-21T00:59:58.943Z,101650.94
2023-05-21T01:01:03.693Z,101648.28
2023-05-21T01:02:06.752Z,101650.25
2023-05-21T01:03:08.370Z,101649.47
2023-05-21T01:04:09.956Z,101645.81
2023-05-21T01:05:11.536Z,101641.22
2023-05-21T01:06:14.136Z,101645.88
2023-05-21T01:07:15.784Z,101638.63
2023-05-21T01:08:17.908Z,101642.38
2023-05-21T01:09:20.094Z,101646.09
2023-05-21T01:10:21.731Z,101639.72
2023-05-21T01:11:36.985Z,101640.72
2023-05-21T01:12:41.614Z,101643.56
2023-05-21T01:13:44.164Z,101643.63
2023-05-21T01:14:45.996Z,101647.31
2023-05-21T01:15:48.951Z,101646.44
2023-05-21T01:16:50.683Z,101643.72
2023-05-21T01:17:52.332Z,101649.25
2023-05-21T01:18:53.960Z,101638.41
2023-05-21T01:19:58.036Z,101648.47
2023-05-21T01:21:00.636Z,101642.13
2023-05-21T01:22:14.201Z,101644.97
2023-05-21T01:23:19.872Z,101637.72
2023-05-21T01:24:21.426Z,101637.69
2023-05-21T01:25:23.403Z,101640.44
2023-05-21T01:26:25.975Z,101638.69
2023-05-21T01:27:27.450Z,101641.41
2023-05-21T01:28:29.772Z,101634.16
2023-05-21T01:29:31.304Z,101634.16
2023-05-21T01:30:32.843Z,101635.13
2023-05-21T01:31:52.608Z,101643.34
2023-05-21T01:33:03.846Z,101644.31
2023-05-21T01:34:06.605Z,101646.13
2023-05-21T01:35:14.563Z,101647.97
2023-05-21T01:36:40.908Z,101641.63
2023-05-21T01:37:48.945Z,101647.97
2023-05-21T01:39:00.626Z,101646.06
2023-05-21T01:40:14.662Z,101640.53
2023-05-21T01:41:18.643Z,101641.41
2023-05-21T01:42:22.963Z,101641.44
2023-05-21T01:43:27.769Z,101641.31
2023-05-21T01:44:30.656Z,101633.94
2023-05-21T01:45:33.532Z,101640.22
2023-05-21T01:46:38.881Z,101630.97
2023-05-21T01:47:42.134Z,101634.72
2023-05-21T01:48:44.060Z,101634.72
2023-05-21T01:49:46.108Z,101636.47
2023-05-21T01:50:48.222Z,101630.13
2023-05-21T01:51:50.004Z,101630.13
2023-05-21T01:52:54.137Z,101634.72
2023-05-21T01:53:55.712Z,101635.66
2023-05-21T01:54:57.613Z,101631.97
2023-05-21T01:55:59.347Z,101629.25
2023-05-21T01:57:01.624Z,101630.16
2023-05-21T01:58:03.149Z,101632.91
2023-05-21T01:59:04.657Z,101621.75
2023-05-21T02:00:07.548Z,101620.81
2023-05-21T02:01:09.177Z,101617.97
2023-05-21T02:02:10.860Z,101620.72
2023-05-21T02:03:15.010Z,101621.69
2023-05-21T02:04:16.550Z,101619.72
2023-05-21T02:05:18.391Z,101616.09
2023-05-21T02:06:19.833Z,101618.69
2023-05-21T02:07:22.565Z,101620.56
2023-05-21T02:08:25.440Z,101615.19
2023-05-21T02:09:26.955Z,101617.81
2023-05-21T02:10:28.469Z,101617.78
2023-05-21T02:11:29.957Z,101618.78
2023-05-21T02:12:31.807Z,101623.34
2023-05-21T02:13:33.776Z,101616.97
2023-05-21T02:14:35.469Z,101619.75
2023-05-21T02:15:37.081Z,101618.69
2023-05-21T02:16:39.073Z,101616.97
2023-05-21T02:17:40.579Z,101614.34
2023-05-21T02:18:46.330Z,101616.22
2023-05-21T02:19:47.840Z,101602.75
2023-05-21T02:20:50.125Z,101610.97
2023-05-21T02:21:51.612Z,101614.66
2023-05-21T02:22:53.096Z,101612.94
2023-05-21T02:23:54.577Z,101618.47
2023-05-21T02:24:56.030Z,101617.69
2023-05-21T02:25:57.542Z,101606.84
2023-05-21T02:26:58.999Z,101618.69
2023-05-21T02:28:00.913Z,101609.66
2023-05-21T02:29:02.535Z,101619.63
2023-05-21T02:30:05.563Z,101616.94
2023-05-21T02:31:07.112Z,101617.00
2023-05-21T02:32:08.696Z,101615.19
2023-05-21T02:33:14.148Z,101616.13
2023-05-21T02:34:16.622Z,101616.91
2023-05-21T02:35:18.142Z,101612.16
2023-05-21T02:36:19.642Z,101605.75
2023-05-21T02:37:22.019Z,101601.03
2023-05-21T02:38:25.808Z,101591.84
2023-05-21T02:39:27.305Z,101600.91
2023-05-21T02:40:28.742Z,101600.81
2023-05-21T02:41:30.202Z,101598.09
2023-05-21T02:42:31.964Z,101601.69
2023-05-21T02:43:33.447Z,101607.16
2023-05-21T02:44:34.885Z,101606.13
2023-05-21T02:45:36.482Z,101601.59
2023-05-21T02:46:38.135Z,101603.50
2023-05-21T02:47:39.741Z,101606.06
2023-05-21T02:48:41.223Z,101607.91
2023-05-21T02:49:42.739Z,101602.44
2023-05-21T02:50:44.215Z,101603.19
2023-05-21T02:51:45.722Z,101600.47
2023-05-21T02:52:47.175Z,101604.03
2023-05-21T02:53:48.639Z,101600.34
2023-05-21T02:54:50.145Z,101590.19
2023-05-21T02:55:51.622Z,101602.16
2023-05-21T02:56:53.120Z,101596.53
2023-05-21T02:57:54.613Z,101598.44
2023-05-21T02:58:56.076Z,101598.44
2023-05-21T02:59:57.568Z,101597.66
2023-05-21T03:00:59.085Z,101599.44
2023-05-21T03:02:00.693Z,101597.56
2023-05-21T03:03:02.239Z,101597.59
2023-05-21T03:04:03.971Z,101600.41
2023-05-21T03:05:06.052Z,101597.47
2023-05-21T03:06:09.960Z,101597.53
2023-05-21T03:07:15.084Z,101598.50
2023-05-21T03:08:16.941Z,101592.13
2023-05-21T03:09:18.503Z,101601.25
2023-05-21T03:10:22.557Z,101592.06
2023-05-21T03:11:23.981Z,101595.81
2023-05-21T03:12:25.568Z,101596.56
2023-05-21T03:13:27.050Z,101590.25
2023-05-21T03:14:28.968Z,101588.47
2023-05-21T03:15:33.272Z,101594.00
2023-05-21T03:16:34.913Z,101588.38
2023-05-21T03:17:36.397Z,101593.84
2023-05-21T03:18:37.906Z,101594.91
2023-05-21T03:19:40.631Z,101590.19
2023-05-21T03:20:44.370Z,101598.38
2023-05-21T03:21:46.286Z,101592.06
2023-05-21T03:22:48.162Z,101598.41
2023-05-21T03:23:49.647Z,101595.78
2023-05-21T03:24:51.587Z,101595.66
2023-05-21T03:25:52.954Z,101597.44
2023-05-21T03:26:54.585Z,101593.75
2023-05-21T03:27:56.840Z,101591.78
2023-05-21T03:28:58.862Z,101597.44
2023-05-21T03:30:00.232Z,101593.72
2023-05-21T03:31:01.937Z,101596.38
2023-05-21T03:32:03.737Z,101594.63
2023-05-21T03:33:06.427Z,101588.28
2023-05-21T03:34:08.996Z,101584.59
2023-05-21T03:35:10.718Z,101591.84
2023-05-21T03:36:12.192Z,101583.69
2023-05-21T03:37:13.754Z,101587.09
2023-05-21T03:38:15.258Z,101584.53
2023-05-21T03:39:16.940Z,101589.81
2023-05-21T03:40:18.377Z,101585.38
2023-05-21T03:41:19.836Z,101597.13
2023-05-21T03:42:21.485Z,101596.19
2023-05-21T03:43:22.919Z,101595.25
2023-05-21T03:44:24.393Z,101602.47
2023-05-21T03:45:26.034Z,101602.59
2023-05-21T03:46:28.285Z,101598.84
2023-05-21T03:47:29.936Z,101605.16
2023-05-21T03:48:31.457Z,101599.72
2023-05-21T03:49:32.909Z,101592.44
2023-05-21T03:50:34.361Z,101601.44
2023-05-21T03:51:36.008Z,101596.91
2023-05-21T03:52:37.535Z,101601.25
2023-05-21T03:53:39.041Z,101595.97
2023-05-21T03:54:40.554Z,101593.16
2023-05-21T03:55:42.010Z,101598.50
2023-05-21T03:56:43.486Z,101594.06
2023-05-21T03:57:45.057Z,101593.88
2023-05-21T03:58:46.836Z,101602.09
2023-05-21T03:59:48.334Z,101595.75
2023-05-21T04:00:50.122Z,101593.09
2023-05-21T04:01:51.610Z,101600.25
2023-05-21T04:02:53.200Z,101605.66
2023-05-21T04:03:54.867Z,101593.03
2023-05-21T04:04:56.498Z,101605.72
2023-05-21T04:05:57.973Z,101591.97
2023-05-21T04:06:59.621Z,101601.03
2023-05-21T04:08:01.106Z,101598.16
2023-05-21T04:09:02.659Z,101600.81
2023-05-21T04:10:04.635Z,101597.06
2023-05-21T04:11:06.013Z,101590.66
2023-05-21T04:12:08.440Z,101595.31
2023-05-21T04:13:09.899Z,101600.69
2023-05-21T04:14:11.336Z,101596.97
2023-05-21T04:15:12.762Z,101600.44
2023-05-21T04:16:18.896Z,101595.88
2023-05-21T04:17:21.123Z,101585.69
2023-05-21T04:18:25.815Z,101595.69
2023-05-21T04:19:27.332Z,101591.84
2023-05-21T04:20:28.829Z,101593.22
2023-05-21T04:21:32.130Z,101594.81
2023-05-21T04:22:33.745Z,101590.16
2023-05-21T04:23:36.652Z,101589.84
2023-05-21T04:24:38.537Z,101589.59
2023-05-21T04:25:39.983Z,101586.81
2023-05-21T04:26:42.169Z,101598.31
2023-05-21T04:27:47.594Z,101592.63
2023-05-21T04:28:50.369Z,101588.53
2023-05-21T04:29:51.883Z,101592.03
2023-05-21T04:30:53.391Z,101592.94
2023-05-21T04:31:54.864Z,101589.28
2023-05-21T04:32:57.918Z,101590.22
2023-05-21T04:33:59.486Z,101593.81
2023-05-21T04:35:01.949Z,101588.38
2023-05-21T04:36:03.868Z,101586.66
2023-05-21T04:37:05.241Z,101594.84
2023-05-21T04:38:06.686Z,101596.44
2023-05-21T04:39:08.146Z,101594.59
2023-05-21T04:40:10.089Z,101579.94
2023-05-21T04:41:13.380Z,101595.22
2023-05-21T04:42:14.841Z,101593.31
2023-05-21T04:43:17.141Z,101599.63
2023-05-21T04:44:18.629Z,101593.28
2023-05-21T04:45:20.123Z,101590.34
2023-05-21T04:46:25.259Z,101589.22
2023-05-21T04:47:30.185Z,101601.03
2023-05-21T04:48:31.957Z,101598.19
2023-05-21T04:49:34.930Z,101598.97
2023-05-21T04:50:36.435Z,101602.47
2023-05-21T04:51:37.965Z,101596.81
2023-05-21T04:52:40.355Z,101593.13
2023-05-21T04:53:42.515Z,101600.16
2023-05-21T04:54:45.792Z,101596.16
2023-05-21T04:55:47.308Z,101593.25
2023-05-21T04:56:48.956Z,101599.56
2023-05-21T04:57:51.072Z,101598.41
2023-05-21T04:58:54.217Z,101595.63
2023-05-21T04:59:57.816Z,101592.63
2023-05-21T05:01:03.178Z,101595.03
2023-05-21T05:02:05.072Z,101591.22
2023-05-21T05:03:06.602Z,101595.63
2023-05-21T05:04:08.209Z,101598.34
2023-05-21T05:05:09.864Z,101596.53
2023-05-21T05:06:11.512Z,101592.63
2023-05-21T05:07:13.527Z,101593.50
2023-05-21T05:08:16.003Z,101592.47
2023-05-21T05:09:18.269Z,101590.56
2023-05-21T05:10:19.852Z,101595.75
2023-05-21T05:11:21.300Z,101598.09
2023-05-21T05:12:23.005Z,101600.59
2023-05-21T05:13:24.461Z,101600.59
2023-05-21T05:14:26.190Z,101593.06
2023-05-21T05:15:27.663Z,101590.28
2023-05-21T05:16:29.574Z,101594.53
2023-05-21T05:17:31.186Z,101592.69
2023-05-21T05:18:34.044Z,101594.56
2023-05-21T05:19:35.578Z,101595.47
2023-05-21T05:20:37.038Z,101594.28
2023-05-21T05:21:38.624Z,101589.78
2023-05-21T05:22:40.131Z,101588.66
2023-05-21T05:23:41.603Z,101595.97
2023-05-21T05:24:43.065Z,101591.38
2023-05-21T05:25:44.549Z,101563.19
2023-05-21T05:26:46.007Z,101590.69
2023-05-21T05:27:47.497Z,101587.59
2023-05-21T05:28:48.945Z,101589.13
2023-05-21T05:29:50.441Z,101584.47
2023-05-21T05:30:52.035Z,101591.69
2023-05-21T05:31:53.558Z,101593.56
2023-05-21T05:32:55.050Z,101592.25
2023-05-21T05:33:56.589Z,101595.69
2023-05-21T05:34:58.167Z,101596.75
2023-05-21T05:36:00.216Z,101596.56
2023-05-21T05:37:02.861Z,101592.81
2023-05-21T05:38:05.338Z,101590.13
2023-05-21T05:39:07.669Z,101588.06
2023-05-21T05:40:09.425Z,101599.34
2023-05-21T05:41:11.005Z,101595.31
2023-05-21T05:42:12.460Z,101592.41
2023-05-21T05:43:14.011Z,101596.44
2023-05-21T05:44:15.636Z,101595.16
2023-05-21T05:45:17.177Z,101597.22
2023-05-21T05:46:18.673Z,101590.44
2023-05-21T05:47:20.193Z,101591.88
2023-05-21T05:48:21.669Z,101592.81
2023-05-21T05:49:23.199Z,101591.88
2023-05-21T05:50:24.659Z,101587.66
2023-05-21T05:51:26.159Z,101592.41
2023-05-21T05:52:27.605Z,101591.09
2023-05-21T05:53:29.131Z,101583.41
2023-05-21T05:54:30.559Z,101588.84
2023-05-21T05:55:31.992Z,101590.25
2023-05-21T05:56:33.593Z,101569.91
2023-05-21T05:57:35.949Z,101588.28
2023-05-21T05:58:37.468Z,101592.75
2023-05-21T05:59:38.933Z,101584.09
2023-05-21T06:00:40.461Z,101591.44
2023-05-21T06:01:42.412Z,101591.06
2023-05-21T06:02:43.872Z,101585.97
2023-05-21T06:03:45.590Z,101582.38
2023-05-21T06:04:47.113Z,101588.94
2023-05-21T06:05:48.706Z,101587.44
2023-05-21T06:06:50.854Z,101586.25
2023-05-21T06:07:52.367Z,101575.06
2023-05-21T06:08:54.457Z,101584.19
2023-05-21T06:09:55.903Z,101581.59
2023-05-21T06:10:57.377Z,101575.19
2023-05-21T06:11:58.888Z,101578.34
2023-05-21T06:13:00.439Z,101573.06
2023-05-21T06:14:01.954Z,101573.94
2023-05-21T06:15:03.920Z,101574.44
2023-05-21T06:16:06.393Z,101579.00
2023-05-21T06:17:07.886Z,101577.13
2023-05-21T06:18:09.445Z,101584.19
2023-05-21T06:19:11.037Z,101580.38
2023-05-21T06:20:12.622Z,101573.06
2023-05-21T06:21:14.077Z,101579.41
2023-05-21T06:22:15.600Z,101576.88
2023-05-21T06:23:17.112Z,101573.25
2023-05-21T06:24:18.568Z,101579.75
2023-05-21T06:25:20.202Z,101578.69
2023-05-21T06:26:21.987Z,101574.94
2023-05-21T06:27:23.478Z,101574.75
2023-05-21T06:28:24.959Z,101583.97
2023-05-21T06:29:26.422Z,101580.06
2023-05-21T06:30:27.884Z,101585.41
2023-05-21T06:31:29.575Z,101580.75
2023-05-21T06:32:31.343Z,101571.56
2023-05-21T06:33:33.355Z,101583.72
2023-05-21T06:34:34.935Z,101582.16
2023-05-21T06:35:37.250Z,101572.69
2023-05-21T06:36:38.976Z,101578.22
2023-05-21T06:37:40.483Z,101566.22
2023-05-21T06:38:43.016Z,101566.06
2023-05-21T06:39:44.462Z,101568.72
2023-05-21T06:40:47.786Z,101564.66
2023-05-21T06:41:49.221Z,101571.84
2023-05-21T06:42:50.760Z,101566.75
2023-05-21T06:43:52.261Z,101562.09
2023-05-21T06:44:53.715Z,101560.94
2023-05-21T06:45:55.196Z,101564.56
2023-05-21T06:46:56.686Z,101562.66
2023-05-21T06:47:58.332Z,101557.94
2023-05-21T06:49:01.341Z,101557.25
2023-05-21T06:50:02.963Z,101551.75
2023-05-21T06:51:04.468Z,101558.97
2023-05-21T06:52:06.509Z,101558.91
2023-05-21T06:53:08.003Z,101558.31
2023-05-21T06:54:09.503Z,101563.72
2023-05-21T06:55:10.974Z,101564.53
2023-05-21T06:56:13.023Z,101559.56
2023-05-21T06:57:16.172Z,101571.00
2023-05-21T06:58:17.624Z,101562.81
2023-05-21T06:59:19.060Z,101561.59
2023-05-21T07:00:20.704Z,101563.38
2023-05-21T07:01:23.454Z,101570.72
2023-05-21T07:02:25.672Z,101565.19
2023-05-21T07:03:27.455Z,101567.59
2023-05-21T07:04:28.959Z,101575.63
2023-05-21T07:05:30.585Z,101573.97
2023-05-21T07:06:32.091Z,101572.44
2023-05-21T07:07:34.902Z,101568.72
2023-05-21T07:08:36.398Z,101568.72
2023-05-21T07:09:37.890Z,101577.50
2023-05-21T07:10:39.383Z,101568.97
2023-05-21T07:11:41.008Z,101565.25
2023-05-21T07:12:42.539Z,101564.38
2023-05-21T07:13:44.093Z,101565.91
2023-05-21T07:14:45.619Z,101570.47
2023-05-21T07:15:47.145Z,101559.84
2023-05-21T07:16:48.615Z,101565.78
2023-05-21T07:17:50.111Z,101566.41
2023-05-21T07:18:51.708Z,101561.78
2023-05-21T07:19:53.193Z,101564.34
2023-05-21T07:20:54.681Z,101564.00
2023-05-21T07:21:57.396Z,101568.56
2023-05-21T07:22:58.885Z,101569.47
2023-05-21T07:24:00.415Z,101558.28
2023-05-21T07:25:01.836Z,101571.63
2023-05-21T07:26:03.363Z,101567.63
2023-05-21T07:27:14.279Z,101559.88
2023-05-21T07:28:25.970Z,101566.66
2023-05-21T07:29:27.470Z,101563.63
2023-05-21T07:30:28.981Z,101561.81
2023-05-21T07:31:30.596Z,101549.50
2023-05-21T07:32:32.133Z,101555.31
2023-05-21T07:33:34.025Z,101547.69
2023-05-21T07:34:36.132Z,101552.00
2023-05-21T07:35:37.937Z,101556.41
2023-05-21T07:36:39.610Z,101554.34
2023-05-21T07:37:41.672Z,101555.66
2023-05-21T07:38:44.606Z,101547.91
2023-05-21T07:39:46.108Z,101550.69
2023-05-21T07:40:47.554Z,101553.03
2023-05-21T07:41:49.170Z,101562.91
2023-05-21T07:42:50.835Z,101547.09
2023-05-21T07:43:52.259Z,101548.38
2023-05-21T07:44:53.741Z,101554.97
2023-05-21T07:45:55.600Z,101550.19
2023-05-21T07:46:57.155Z,101557.22
2023-05-21T07:47:58.728Z,101535.22
2023-05-21T07:49:00.300Z,101553.34
2023-05-21T07:50:01.783Z,101545.72
2023-05-21T07:51:03.973Z,101549.97
2023-05-21T07:52:06.140Z,101550.56
2023-05-21T07:53:07.741Z,101553.78
2023-05-21T07:54:09.797Z,101543.69
2023-05-21T07:55:11.398Z,101544.56
2023-05-21T07:56:12.925Z,101546.47
2023-05-21T07:57:14.454Z,101549.00
2023-05-21T07:58:17.969Z,101542.41
2023-05-21T07:59:19.479Z,101551.38
2023-05-21T08:00:23.702Z,101541.78
2023-05-21T08:01:25.296Z,101536.41
2023-05-21T08:02:26.849Z,101540.81
2023-05-21T08:03:30.949Z,101539.69
2023-05-21T08:04:32.708Z,101542.63
2023-05-21T08:05:34.332Z,101543.03
2023-05-21T08:06:39.926Z,101538.50
2023-05-21T08:07:41.416Z,101541.91
2023-05-21T08:08:42.893Z,101538.97
2023-05-21T08:09:44.463Z,101530.09
2023-05-21T08:10:47.717Z,101534.69
2023-05-21T08:11:49.253Z,101538.94
2023-05-21T08:12:51.047Z,101531.34
2023-05-21T08:13:52.426Z,101539.50
2023-05-21T08:14:53.880Z,101532.72
2023-05-21T08:15:55.380Z,101533.16
2023-05-21T08:16:57.153Z,101529.72
2023-05-21T08:17:58.688Z,101536.09
2023-05-21T08:19:00.247Z,101529.81
2023-05-21T08:20:02.001Z,101534.28
2023-05-21T08:21:04.300Z,101530.03
2023-05-21T08:22:08.381Z,101535.28
2023-05-21T08:23:09.838Z,101529.31
2023-05-21T08:24:11.359Z,101535.94
2023-05-21T08:25:12.800Z,101539.19
2023-05-21T08:26:16.438Z,101523.88
2023-05-21T08:27:17.941Z,101536.84
2023-05-21T08:28:21.805Z,101529.91
2023-05-21T08:29:23.382Z,101523.22
2023-05-21T08:30:24.832Z,101527.63
2023-05-21T08:31:26.364Z,101526.53
2023-05-21T08:32:27.937Z,101522.63
2023-05-21T08:33:29.445Z,101528.66
2023-05-21T08:34:31.694Z,101525.41
2023-05-21T08:35:33.216Z,101531.94
2023-05-21T08:36:34.802Z,101530.47
2023-05-21T08:37:36.744Z,101529.16
2023-05-21T08:38:38.196Z,101529.50
2023-05-21T08:39:39.649Z,101511.94
2023-05-21T08:40:41.510Z,101524.75
2023-05-21T08:41:49.430Z,101517.66
2023-05-21T08:42:51.630Z,101520.75
2023-05-21T08:43:59.446Z,101529.78
2023-05-21T08:45:01.155Z,101523.50
2023-05-21T08:46:03.932Z,101522.50
2023-05-21T08:47:07.657Z,101521.06
2023-05-21T08:48:11.639Z,101515.31
2023-05-21T08:49:17.437Z,101517.03
2023-05-21T08:50:19.504Z,101514.25
2023-05-21T08:51:22.140Z,101519.91
2023-05-21T08:52:24.430Z,101515.22
2023-05-21T08:53:29.044Z,101517.13
2023-05-21T08:54:31.013Z,101511.56
2023-05-21T08:55:33.317Z,101515.66
2023-05-21T08:56:35.478Z,101513.50
2023-05-21T08:57:37.355Z,101522.13
2023-05-21T08:58:43.671Z,101514.03
2023-05-21T08:59:45.579Z,101502.72
2023-05-21T09:00:47.051Z,101512.91
2023-05-21T09:01:50.097Z,101511.81
2023-05-21T09:02:54.553Z,101518.91
2023-05-21T09:04:04.908Z,101516.91
2023-05-21T09:05:15.305Z,101510.81
2023-05-21T09:06:17.054Z,101516.59
2023-05-21T09:07:18.577Z,101521.66
2023-05-21T09:08:27.413Z,101517.34
2023-05-21T09:09:34.028Z,101517.63
2023-05-21T09:10:46.417Z,101516.16
2023-05-21T09:11:49.092Z,101515.97
2023-05-21T09:12:50.889Z,101515.56
2023-05-21T09:13:53.281Z,101513.16
2023-05-21T09:14:56.733Z,101515.16
2023-05-21T09:15:58.810Z,101516.81
2023-05-21T09:17:00.570Z,101506.00
2023-05-21T09:18:02.212Z,101511.41
2023-05-21T09:19:04.759Z,101519.44
2023-05-21T09:21:31.374Z,101505.09
2023-05-21T09:22:32.999Z,101513.59
2023-05-21T09:23:34.510Z,101503.00
2023-05-21T09:24:36.546Z,101506.59
2023-05-21T09:25:39.420Z,101504.19
2023-05-21T09:26:44.313Z,101503.13
2023-05-21T09:27:45.870Z,101504.59
2023-05-21T09:28:47.548Z,101504.56
2023-05-21T09:29:48.990Z,101496.53
2023-05-21T09:30:54.019Z,101497.91
2023-05-21T09:31:55.766Z,101498.59
2023-05-21T09:32:58.608Z,101505.72
2023-05-21T09:34:00.163Z,101500.38
2023-05-21T09:35:12.028Z,101502.88
2023-05-21T09:36:13.973Z,101503.47
2023-05-21T09:37:26.679Z,101500.00
2023-05-21T09:38:30.230Z,101507.56
2023-05-21T09:39:31.725Z,101501.91
2023-05-21T09:40:35.486Z,101500.56
2023-05-21T09:41:38.026Z,101495.94
2023-05-21T09:42:53.332Z,101501.78
2023-05-21T09:43:59.787Z,101495.00
2023-05-21T09:45:01.374Z,101493.19
2023-05-21T09:46:02.975Z,101499.78
2023-05-21T09:47:04.627Z,101497.56
2023-05-21T09:48:06.215Z,101497.25
2023-05-21T09:49:23.477Z,101497.19
2023-05-21T09:50:27.872Z,101488.69
2023-05-21T09:51:29.374Z,101489.13
2023-05-21T09:52:30.869Z,101490.00
2023-05-21T09:53:32.300Z,101488.00
2023-05-21T09:54:35.167Z,101485.56
2023-05-21T09:55:36.640Z,101481.53
2023-05-21T09:56:39.595Z,101491.59
2023-05-21T09:57:42.753Z,101493.22
2023-05-21T09:58:44.289Z,101493.88
2023-05-21T09:59:50.432Z,101490.63
2023-05-21T10:00:53.060Z,101487.94
2023-05-21T10:01:55.420Z,101487.22
2023-05-21T10:03:00.920Z,101487.22
2023-05-21T10:04:07.933Z,101489.78
2023-05-21T10:05:11.164Z,101492.50
2023-05-21T10:06:14.929Z,101486.91
2023-05-21T10:07:26.902Z,101474.00
2023-05-21T10:08:34.405Z,101474.81
2023-05-21T10:09:36.240Z,101473.38
2023-05-21T10:10:40.576Z,101474.75
2023-05-21T10:11:44.730Z,101473.91
2023-05-21T10:12:48.089Z,101473.44
2023-05-21T10:13:55.528Z,101475.66
2023-05-21T10:15:02.739Z,101474.03
2023-05-21T10:16:05.499Z,101465.03
2023-05-21T10:17:07.658Z,101469.53
2023-05-21T10:18:12.014Z,101457.91
2023-05-21T10:19:15.567Z,101462.63
2023-05-21T10:20:17.473Z,101461.84
2023-05-21T10:21:19.025Z,101453.00
2023-05-21T10:22:20.780Z,101457.63
2023-05-21T10:23:23.568Z,101451.56
2023-05-21T10:24:26.025Z,101458.56
2023-05-21T10:25:30.856Z,101449.84
2023-05-21T10:26:33.030Z,101448.47
2023-05-21T10:27:37.660Z,101453.19
2023-05-21T10:28:39.983Z,101450.28
2023-05-21T10:29:42.876Z,101446.00
2023-05-21T10:30:44.928Z,101449.63
2023-05-21T10:31:49.661Z,101448.97
2023-05-21T10:32:51.690Z,101443.13
2023-05-21T10:33:57.212Z,101442.22
2023-05-21T10:35:01.473Z,101453.56
2023-05-21T10:36:03.581Z,101440.13
2023-05-21T10:37:08.532Z,101432.25
2023-05-21T10:38:10.764Z,101432.91
2023-05-21T10:39:14.389Z,101434.25
2023-05-21T10:40:16.115Z,101430.63
2023-05-21T10:41:18.888Z,101417.69
2023-05-21T10:42:32.310Z,101433.13
2023-05-21T10:43:58.494Z,101422.81
2023-05-21T10:45:08.520Z,101435.88
2023-05-21T10:46:48.614Z,101427.66
2023-05-21T10:48:08.532Z,101442.34
2023-05-21T10:49:37.276Z,101427.34
2023-05-21T10:51:13.665Z,101433.47
2023-05-21T10:52:42.938Z,101429.41
2023-05-21T10:54:14.436Z,101433.94
2023-05-21T10:55:34.784Z,101435.00
2023-05-21T10:56:39.445Z,101429.59
2023-05-21T10:58:02.551Z,101433.19
2023-05-21T10:59:24.730Z,101434.94
2023-05-21T11:00:27.402Z,101422.69
2023-05-21T11:01:33.952Z,101426.22
2023-05-21T11:02:36.463Z,101420.34
2023-05-21T11:03:38.356Z,101426.31
2023-05-21T11:04:43.238Z,101428.47
2023-05-21T11:05:54.008Z,101425.50
2023-05-21T11:06:58.498Z,101421.81
2023-05-21T11:08:01.590Z,101426.16
2023-05-21T11:09:23.385Z,101419.19
2023-05-21T11:10:39.760Z,101427.72
2023-05-21T11:11:46.344Z,101425.81
2023-05-21T11:13:14.077Z,101426.31
2023-05-21T11:14:36.473Z,101435.75
2023-05-21T11:16:05.140Z,101435.63
2023-05-21T11:17:06.686Z,101421.69
2023-05-21T11:18:09.405Z,101421.75
2023-05-21T11:19:17.489Z,101415.63
2023-05-21T11:20:21.673Z,101422.00
2023-05-21T11:21:28.382Z,101419.47
2023-05-21T11:22:29.948Z,101420.38
2023-05-21T11:23:54.014Z,101421.94
2023-05-21T11:25:01.906Z,101420.84
2023-05-21T11:26:03.442Z,101426.84
2023-05-21T11:27:06.589Z,101420.88
2023-05-21T11:28:10.878Z,101418.59
2023-05-21T11:29:12.490Z,101419.25
2023-05-21T11:30:18.564Z,101415.19
2023-05-21T11:31:26.911Z,101420.56
2023-05-21T11:32:29.719Z,101416.38
2023-05-21T11:33:31.266Z,101413.47
2023-05-21T11:34:43.837Z,101411.41
2023-05-21T11:35:45.312Z,101413.22
2023-05-21T11:36:48.388Z,101411.75
2023-05-21T11:37:53.689Z,101405.84
2023-05-21T11:39:15.323Z,101404.94
2023-05-21T11:40:23.808Z,101394.59
2023-05-21T11:41:25.842Z,101403.47
2023-05-21T11:42:31.578Z,101409.91
2023-05-21T11:43:33.066Z,101401.94
2023-05-21T11:44:41.298Z,101402.69
2023-05-21T11:45:47.131Z,101405.97
2023-05-21T11:46:48.805Z,101404.03
2023-05-21T11:47:51.381Z,101398.59
2023-05-21T11:48:53.874Z,101405.59
2023-05-21T11:49:57.152Z,101399.19
2023-05-21T11:50:58.730Z,101398.44
2023-05-21T11:52:01.313Z,101402.59
2023-05-21T11:53:02.868Z,101391.41
2023-05-21T11:54:04.435Z,101395.13
2023-05-21T11:55:07.257Z,101399.94
2023-05-21T11:56:09.788Z,101396.72
2023-05-21T11:57:11.865Z,101397.25
2023-05-21T11:58:14.954Z,101394.81
2023-05-21T11:59:18.633Z,101398.00
2023-05-21T12:00:21.567Z,101395.63
2023-05-21T12:01:26.549Z,101408.31
2023-05-21T12:02:32.366Z,101403.41
2023-05-21T12:03:37.024Z,101393.78